createdAt,value
2023-02-01T00:02:16.835Z,99.90
2023-02-01T00:04:43.769Z,99.90
2023-02-01T00:07:12.629Z,99.90
2023-02-01T00:09:42.589Z,99.90
2023-02-01T00:12:09.764Z,99.90
2023-02-01T00:14:39.505Z,99.90
2023-02-01T00:17:07.632Z,99.90
2023-02-01T00:19:35.400Z,99.90
2023-02-01T00:22:02.508Z,99.90
2023-02-01T00:24:29.863Z,99.90
2023-02-01T00:26:58.305Z,99.90
2023-02-01T00:29:33.679Z,99.90
2023-02-01T00:32:00.707Z,99.90
2023-02-01T00:34:30.198Z,99.90
2023-02-01T00:36:57.439Z,99.90
2023-02-01T00:39:24.748Z,99.90
2023-02-01T00:41:51.816Z,99.90
2023-02-01T00:44:20.308Z,99.90
2023-02-01T00:46:47.556Z,99.90
2023-02-01T00:49:14.905Z,99.90
2023-02-01T00:51:41.992Z,99.90
2023-02-01T00:54:11.948Z,99.90
2023-02-01T00:56:41.033Z,99.90
2023-02-01T00:59:18.749Z,99.90
2023-02-01T01:01:56.677Z,99.90
2023-02-01T01:04:23.829Z,99.90
2023-02-01T01:06:51.809Z,99.90
2023-02-01T01:09:19.396Z,99.90
2023-02-01T01:11:46.668Z,99.90
2023-02-01T01:14:16.997Z,99.90
2023-02-01T01:16:45.063Z,99.90
2023-02-01T01:19:14.209Z,99.90
2023-02-01T01:21:41.519Z,99.90
2023-02-01T01:24:09.177Z,99.90
2023-02-01T01:26:36.397Z,99.90
2023-02-01T01:29:03.956Z,99.90
2023-02-01T01:31:32.073Z,99.90
2023-02-01T01:34:00.351Z,99.90
2023-02-01T01:36:29.927Z,99.90
2023-02-01T01:38:58.252Z,99.90
2023-02-01T01:41:29.251Z,99.90
2023-02-01T01:43:58.927Z,99.90
2023-02-01T01:46:28.644Z,99.90
2023-02-01T01:49:04.659Z,99.90
2023-02-01T01:51:38.310Z,99.90
2023-02-01T01:54:10.090Z,99.90
2023-02-01T01:56:37.620Z,99.90
2023-02-01T01:59:06.468Z,99.90
2023-02-01T02:01:33.772Z,99.90
2023-02-01T02:04:02.025Z,99.90
2023-02-01T02:06:40.259Z,99.90
2023-02-01T02:09:07.791Z,99.90
2023-02-01T02:11:35.281Z,99.90
2023-02-01T02:14:04.441Z,99.90
2023-02-01T02:16:55.569Z,99.90
2023-02-01T02:20:12.964Z,99.90
2023-02-01T02:23:19.309Z,99.90
2023-02-01T02:26:25.924Z,99.90
2023-02-01T02:29:33.843Z,99.90
2023-02-01T02:32:30.892Z,99.90
2023-02-01T02:35:08.018Z,99.90
2023-02-01T02:37:41.740Z,99.90
2023-02-01T02:40:18.280Z,99.90
2023-02-01T02:43:12.446Z,99.90
2023-02-01T02:46:03.043Z,99.90
2023-02-01T02:48:40.693Z,99.90
2023-02-01T02:51:32.545Z,99.90
2023-02-01T02:54:24.879Z,99.90
2023-02-01T02:57:12.914Z,99.90
2023-02-01T03:00:01.346Z,99.90
2023-02-01T03:02:53.345Z,99.90
2023-02-01T03:05:21.632Z,99.90
2023-02-01T03:08:00.461Z,99.90
2023-02-01T03:10:38.803Z,99.90
2023-02-01T03:13:11.781Z,99.90
2023-02-01T03:15:51.002Z,99.90
2023-02-01T03:18:24.338Z,99.90
2023-02-01T03:20:54.601Z,99.90
2023-02-01T03:23:29.698Z,99.90
2023-02-01T03:26:00.572Z,99.90
2023-02-01T03:28:31.053Z,99.90
2023-02-01T03:30:58.862Z,99.90
2023-02-01T03:33:28.103Z,99.90
2023-02-01T03:36:15.168Z,99.90
2023-02-01T03:38:51.421Z,99.90
2023-02-01T03:41:25.242Z,99.90
2023-02-01T03:43:57.313Z,99.90
2023-02-01T03:46:34.091Z,99.90
2023-02-01T03:49:06.364Z,99.90
2023-02-01T03:51:35.036Z,99.90
2023-02-01T03:54:12.286Z,99.90
2023-02-01T03:56:45.310Z,99.90
2023-02-01T03:59:13.604Z,99.90
2023-02-01T04:01:41.754Z,99.90
2023-02-01T04:04:10.515Z,99.90
2023-02-01T04:06:41.101Z,99.90
2023-02-01T04:09:09.900Z,99.90
2023-02-01T04:11:36.897Z,99.90
2023-02-01T04:14:05.676Z,99.90
2023-02-01T04:16:35.203Z,99.90
2023-02-01T04:19:02.503Z,99.90
2023-02-01T04:21:30.420Z,99.90
2023-02-01T04:23:58.124Z,99.90
2023-02-01T04:26:26.795Z,99.90
2023-02-01T04:28:56.671Z,99.90
2023-02-01T04:31:27.069Z,99.90
2023-02-01T04:33:55.628Z,99.90
2023-02-01T04:36:23.626Z,99.90
2023-02-01T04:38:51.967Z,99.90
2023-02-01T04:41:20.065Z,99.90
2023-02-01T04:43:50.010Z,99.90
2023-02-01T04:46:17.441Z,99.90
2023-02-01T04:48:44.473Z,99.90
2023-02-01T04:51:12.295Z,99.90
2023-02-01T04:53:39.478Z,99.90
2023-02-01T04:56:07.947Z,99.90
2023-02-01T04:58:35.070Z,99.90
2023-02-01T05:01:06.405Z,99.90
2023-02-01T05:03:34.740Z,99.90
2023-02-01T05:06:02.201Z,99.90
2023-02-01T05:08:29.816Z,99.90
2023-02-01T05:10:57.077Z,99.90
2023-02-01T05:13:42.993Z,99.90
2023-02-01T05:16:12.907Z,99.90
2023-02-01T05:18:40.074Z,99.90
2023-02-01T05:21:07.386Z,99.90
2023-02-01T05:23:54.371Z,99.90
2023-02-01T05:26:21.689Z,99.90
2023-02-01T05:28:48.888Z,99.90
2023-02-01T05:31:17.788Z,99.90
2023-02-01T05:33:44.912Z,99.90
2023-02-01T05:36:12.223Z,99.90
2023-02-01T05:38:40.650Z,99.90
2023-02-01T05:41:07.846Z,99.90
2023-02-01T05:43:35.128Z,99.90
2023-02-01T05:46:02.435Z,99.90
2023-02-01T05:48:31.594Z,99.90
2023-02-01T05:50:58.661Z,99.90
2023-02-01T05:53:27.872Z,99.90
2023-02-01T05:55:57.743Z,99.90
2023-02-01T05:58:25.247Z,99.90
2023-02-01T06:00:52.632Z,99.90
2023-02-01T06:03:20.469Z,99.90
2023-02-01T06:05:49.891Z,99.90
2023-02-01T06:08:18.194Z,99.90
2023-02-01T06:10:45.234Z,99.90
2023-02-01T06:13:12.647Z,99.90
2023-02-01T06:15:39.767Z,99.90
2023-02-01T06:18:06.780Z,99.90
2023-02-01T06:20:33.875Z,99.90
2023-02-01T06:23:02.951Z,99.90
2023-02-01T06:25:30.517Z,99.90
2023-02-01T06:28:01.788Z,99.90
2023-02-01T06:30:29.557Z,99.90
2023-02-01T06:32:56.721Z,99.90
2023-02-01T06:35:25.403Z,99.90
2023-02-01T06:37:52.614Z,99.90
2023-02-01T06:40:26.630Z,99.90
2023-02-01T06:42:54.035Z,99.90
2023-02-01T06:45:21.034Z,99.90
2023-02-01T06:47:48.150Z,99.90
2023-02-01T06:50:16.329Z,99.90
2023-02-01T06:52:43.572Z,99.90
2023-02-01T06:55:12.259Z,99.90
2023-02-01T06:57:41.416Z,99.90
2023-02-01T07:00:11.125Z,99.90
2023-02-01T07:02:39.162Z,99.90
2023-02-01T07:05:07.106Z,99.90
2023-02-01T07:07:34.567Z,99.90
2023-02-01T07:10:04.472Z,99.90
2023-02-01T07:12:31.563Z,99.90
2023-02-01T07:15:00.217Z,99.90
2023-02-01T07:17:27.405Z,99.90
2023-02-01T07:19:54.744Z,99.90
2023-02-01T07:22:21.852Z,99.90
2023-02-01T07:24:51.894Z,99.90
2023-02-01T07:27:21.291Z,99.90
2023-02-01T07:29:49.959Z,99.90
2023-02-01T07:32:19.100Z,99.90
2023-02-01T07:34:46.334Z,99.90
2023-02-01T07:37:13.655Z,99.90
2023-02-01T07:39:44.253Z,99.90
2023-02-01T07:42:11.488Z,99.90
2023-02-01T07:44:39.148Z,99.90
2023-02-01T07:47:06.466Z,99.90
2023-02-01T07:49:34.884Z,99.90
2023-02-01T07:52:02.409Z,99.90
2023-02-01T07:54:33.759Z,99.90
2023-02-01T07:57:00.748Z,99.90
2023-02-01T07:59:28.595Z,99.90
2023-02-01T08:01:55.642Z,99.90
2023-02-01T08:04:24.020Z,99.90
2023-02-01T08:06:52.541Z,99.90
2023-02-01T08:09:19.757Z,99.90
2023-02-01T08:11:46.859Z,99.90
2023-02-01T08:14:14.167Z,99.90
2023-02-01T08:16:41.212Z,99.90
2023-02-01T08:19:08.317Z,99.90
2023-02-01T08:21:38.470Z,99.90
2023-02-01T08:24:09.908Z,99.90
2023-02-01T08:26:37.096Z,99.90
2023-02-01T08:29:06.251Z,99.90
2023-02-01T08:31:33.563Z,99.90
2023-02-01T08:34:04.542Z,99.90
2023-02-01T08:36:32.402Z,99.90
2023-02-01T08:38:59.435Z,99.90
2023-02-01T08:41:30.810Z,99.90
2023-02-01T08:43:58.893Z,99.90
2023-02-01T08:46:26.211Z,99.90
2023-02-01T08:48:53.759Z,99.90
2023-02-01T08:51:23.662Z,99.90
2023-02-01T08:53:51.515Z,99.90
2023-02-01T08:56:20.386Z,99.90
2023-02-01T08:58:49.030Z,99.90
2023-02-01T09:01:18.332Z,99.90
2023-02-01T09:03:48.138Z,99.90
2023-02-01T09:06:16.670Z,99.90
2023-02-01T09:08:47.116Z,99.90
2023-02-01T09:11:17.721Z,99.90
2023-02-01T09:13:45.999Z,99.90
2023-02-01T09:16:14.899Z,99.90
2023-02-01T09:18:50.910Z,99.90
2023-02-01T09:21:29.407Z,99.90
2023-02-01T09:23:56.453Z,99.90
2023-02-01T09:26:31.558Z,99.90
2023-02-01T09:28:59.795Z,99.90
2023-02-01T09:31:30.065Z,99.90
2023-02-01T09:33:57.358Z,99.90
2023-02-01T09:36:24.929Z,99.90
2023-02-01T09:38:53.659Z,99.90
2023-02-01T09:41:38.936Z,99.90
2023-02-01T09:44:25.574Z,99.90
2023-02-01T09:46:57.289Z,99.90
2023-02-01T09:49:30.587Z,99.90
2023-02-01T09:52:00.014Z,99.90
2023-02-01T09:54:31.069Z,99.90
2023-02-01T09:57:08.072Z,99.90
2023-02-01T09:59:42.807Z,99.90
2023-02-01T10:02:17.464Z,99.90
2023-02-01T10:04:46.334Z,99.90
2023-02-01T10:07:26.485Z,99.90
2023-02-01T10:10:00.729Z,99.90
2023-02-01T10:12:55.873Z,99.90
2023-02-01T10:15:42.182Z,99.90
2023-02-01T10:18:42.019Z,99.90
2023-02-01T10:21:22.646Z,99.90
2023-02-01T10:24:18.175Z,99.90
2023-02-01T10:26:52.531Z,99.90
2023-02-01T10:29:23.932Z,99.90
2023-02-01T10:31:51.656Z,99.90
2023-02-01T10:34:25.471Z,99.90
2023-02-01T10:36:57.028Z,99.90
2023-02-01T10:39:25.481Z,99.90
2023-02-01T10:41:55.703Z,99.90
2023-02-01T10:44:28.070Z,99.90
2023-02-01T10:46:55.926Z,99.90
2023-02-01T10:49:33.623Z,99.90
2023-02-01T10:52:12.223Z,99.90
2023-02-01T10:54:40.831Z,99.90
2023-02-01T10:57:10.726Z,99.90
2023-02-01T10:59:39.583Z,99.90
2023-02-01T11:02:21.756Z,99.90
2023-02-01T11:04:51.059Z,99.90
2023-02-01T11:07:24.434Z,99.90
2023-02-01T11:09:59.342Z,99.90
2023-02-01T11:12:31.849Z,99.90
2023-02-01T11:15:14.537Z,99.90
2023-02-01T11:17:45.188Z,99.90
2023-02-01T11:20:18.636Z,99.90
2023-02-01T11:22:54.697Z,99.90
2023-02-01T11:25:23.694Z,99.90
2023-02-01T11:27:55.939Z,99.90
2023-02-01T11:30:34.596Z,99.90
2023-02-01T11:33:06.294Z,99.90
2023-02-01T11:35:39.602Z,99.90
2023-02-01T11:38:22.404Z,99.90
2023-02-01T11:40:50.610Z,99.90
2023-02-01T11:43:26.938Z,99.90
2023-02-01T11:45:59.794Z,99.90
2023-02-01T11:48:31.360Z,99.90
2023-02-01T11:51:27.099Z,99.90
2023-02-01T11:54:15.353Z,99.90
2023-02-01T11:56:58.503Z,99.90
2023-02-01T11:59:56.930Z,99.90
2023-02-01T12:03:07.452Z,99.90
2023-02-01T12:05:49.506Z,99.90
2023-02-01T12:08:49.718Z,99.90
2023-02-01T12:11:31.591Z,99.90
2023-02-01T12:14:20.808Z,99.90
2023-02-01T12:17:04.036Z,99.90
2023-02-01T12:19:52.070Z,99.90
2023-02-01T12:22:40.040Z,99.90
2023-02-01T12:25:30.112Z,99.90
2023-02-01T12:28:24.959Z,99.90
2023-02-01T12:31:24.894Z,99.90
2023-02-01T12:34:13.061Z,99.90
2023-02-01T12:36:51.621Z,99.90
2023-02-01T12:39:28.349Z,99.90
2023-02-01T12:42:04.275Z,99.90
2023-02-01T12:44:42.169Z,99.90
2023-02-01T12:47:19.550Z,99.90
2023-02-01T12:49:56.177Z,99.90
2023-02-01T12:52:36.370Z,99.90
2023-02-01T12:55:15.824Z,99.90
2023-02-01T12:57:49.515Z,99.50
2023-02-01T13:00:28.471Z,99.50
2023-02-01T13:03:08.675Z,99.80
2023-02-01T13:05:48.543Z,99.60
2023-02-01T13:08:22.666Z,99.90
2023-02-01T13:10:58.023Z,99.90
2023-02-01T13:13:42.805Z,99.90
2023-02-01T13:16:19.153Z,99.90
2023-02-01T13:18:52.017Z,99.90
2023-02-01T13:21:27.059Z,99.90
2023-02-01T13:23:54.774Z,99.90
2023-02-01T13:26:22.181Z,99.90
2023-02-01T13:28:58.194Z,99.90
2023-02-01T13:31:58.269Z,99.90
2023-02-01T13:34:55.368Z,99.80
2023-02-01T13:37:51.282Z,99.80
2023-02-01T13:40:37.641Z,99.70
2023-02-01T13:43:15.515Z,99.80
2023-02-01T13:45:51.298Z,99.80
2023-02-01T13:48:27.806Z,99.60
2023-02-01T13:51:00.702Z,99.80
2023-02-01T13:53:35.327Z,99.70
2023-02-01T13:56:07.253Z,99.50
2023-02-01T13:58:42.027Z,99.50
2023-02-01T14:01:47.346Z,99.40
2023-02-01T14:04:50.672Z,99.60
2023-02-01T14:07:22.628Z,99.30
2023-02-01T14:09:50.309Z,99.80
2023-02-01T14:12:49.346Z,99.50
2023-02-01T14:15:28.148Z,99.30
2023-02-01T14:17:57.692Z,99.50
2023-02-01T14:20:52.423Z,99.70
2023-02-01T14:23:32.062Z,99.50
2023-02-01T14:26:20.632Z,99.50
2023-02-01T14:28:58.338Z,99.40
2023-02-01T14:31:36.896Z,99.50
2023-02-01T14:34:16.755Z,99.70
2023-02-01T14:36:50.171Z,99.00
2023-02-01T14:39:28.374Z,99.20
2023-02-01T14:42:03.236Z,99.00
2023-02-01T14:44:39.324Z,99.20
2023-02-01T14:47:35.204Z,99.50
2023-02-01T14:50:37.880Z,99.30
2023-02-01T14:53:24.381Z,99.40
2023-02-01T14:55:56.995Z,99.50
2023-02-01T14:58:39.235Z,99.30
2023-02-01T15:01:28.043Z,99.50
2023-02-01T15:04:02.883Z,99.20
2023-02-01T15:06:40.046Z,99.40
2023-02-01T15:09:13.372Z,99.60
2023-02-01T15:12:02.491Z,99.40
2023-02-01T15:14:38.710Z,99.30
2023-02-01T15:17:20.612Z,99.40
2023-02-01T15:19:56.420Z,99.50
2023-02-01T15:22:28.797Z,99.60
2023-02-01T15:24:58.990Z,99.10
2023-02-01T15:27:29.854Z,99.10
2023-02-01T15:30:07.108Z,99.00
2023-02-01T15:32:40.123Z,99.30
2023-02-01T15:35:49.261Z,99.30
2023-02-01T15:38:42.321Z,99.40
2023-02-01T15:41:16.064Z,99.70
2023-02-01T15:43:48.275Z,99.50
2023-02-01T15:46:31.420Z,99.50
2023-02-01T15:48:59.490Z,99.90
2023-02-01T15:51:30.701Z,99.90
2023-02-01T15:54:09.244Z,99.90
2023-02-01T15:56:39.784Z,99.90
2023-02-01T15:59:17.802Z,99.90
2023-02-01T16:01:45.733Z,99.90
2023-02-01T16:04:26.562Z,99.90
2023-02-01T16:07:05.244Z,99.90
2023-02-01T16:09:56.614Z,99.90
2023-02-01T16:12:36.723Z,99.90
2023-02-01T16:15:10.611Z,99.90
2023-02-01T16:17:38.749Z,99.90
2023-02-01T16:20:08.152Z,99.90
2023-02-01T16:22:38.503Z,99.90
2023-02-01T16:25:10.647Z,99.90
2023-02-01T16:27:37.800Z,99.90
2023-02-01T16:30:06.588Z,99.90
2023-02-01T16:32:34.061Z,99.90
2023-02-01T16:35:04.540Z,99.90
2023-02-01T16:37:41.096Z,99.90
2023-02-01T16:40:15.806Z,99.90
2023-02-01T16:42:43.355Z,99.90
2023-02-01T16:45:11.514Z,99.90
2023-02-01T16:47:42.107Z,99.90
2023-02-01T16:50:23.345Z,99.90
2023-02-01T16:53:00.877Z,99.90
2023-02-01T16:55:32.195Z,99.90
2023-02-01T16:58:03.893Z,99.90
2023-02-01T17:00:32.317Z,99.90
2023-02-01T17:02:59.606Z,99.90
2023-02-01T17:05:27.423Z,99.90
2023-02-01T17:07:54.774Z,99.90
2023-02-01T17:10:34.721Z,99.90
2023-02-01T17:13:03.772Z,99.90
2023-02-01T17:15:35.812Z,99.90
2023-02-01T17:18:16.199Z,99.90
2023-02-01T17:20:44.006Z,99.90
2023-02-01T17:23:16.011Z,99.90
2023-02-01T17:25:46.200Z,99.90
2023-02-01T17:28:18.828Z,99.90
2023-02-01T17:30:46.688Z,99.90
2023-02-01T17:33:24.927Z,99.90
2023-02-01T17:35:55.844Z,99.90
2023-02-01T17:38:23.667Z,99.90
2023-02-01T17:40:51.620Z,99.90
2023-02-01T17:43:24.762Z,99.90
2023-02-01T17:45:55.822Z,99.90
2023-02-01T17:48:28.610Z,99.90
2023-02-01T17:51:00.667Z,99.90
2023-02-01T17:53:31.045Z,99.90
2023-02-01T17:56:01.689Z,99.90
2023-02-01T17:58:40.786Z,99.90
2023-02-01T18:01:14.291Z,99.90
2023-02-01T18:03:42.394Z,99.90
2023-02-01T18:06:17.505Z,99.90
2023-02-01T18:08:45.267Z,99.90
2023-02-01T18:11:15.166Z,99.90
2023-02-01T18:13:44.879Z,99.90
2023-02-01T18:16:20.603Z,99.90
2023-02-01T18:18:54.835Z,99.90
2023-02-01T18:21:23.749Z,99.90
2023-02-01T18:23:53.864Z,99.90
2023-02-01T18:26:21.397Z,99.90
2023-02-01T18:28:50.138Z,99.90
2023-02-01T18:31:23.850Z,99.90
2023-02-01T18:33:52.610Z,99.90
2023-02-01T18:36:28.147Z,99.90
2023-02-01T18:39:01.468Z,99.90
2023-02-01T18:41:41.275Z,99.90
2023-02-01T18:44:22.462Z,99.90
2023-02-01T18:46:50.382Z,99.90
2023-02-01T18:49:18.852Z,99.90
2023-02-01T18:51:50.065Z,99.90
2023-02-01T18:54:20.170Z,99.90
2023-02-01T18:56:49.020Z,99.90
2023-02-01T18:59:18.643Z,99.90
2023-02-01T19:01:49.731Z,99.90
2023-02-01T19:04:25.517Z,99.90
2023-02-01T19:06:57.048Z,99.90
2023-02-01T19:09:28.460Z,99.90
2023-02-01T19:12:05.114Z,99.90
2023-02-01T19:14:37.387Z,99.90
2023-02-01T19:17:04.523Z,99.90
2023-02-01T19:19:31.899Z,99.90
2023-02-01T19:21:59.211Z,99.90
2023-02-01T19:24:27.987Z,99.90
2023-02-01T19:26:57.104Z,99.90
2023-02-01T19:29:25.248Z,99.90
2023-02-01T19:31:57.716Z,99.90
2023-02-01T19:34:25.227Z,99.90
2023-02-01T19:36:53.153Z,99.90
2023-02-01T19:39:22.131Z,99.90
2023-02-01T19:41:49.657Z,99.90
2023-02-01T19:44:20.180Z,99.90
2023-02-01T19:46:49.523Z,99.90
2023-02-01T19:49:18.731Z,99.90
2023-02-01T19:51:48.924Z,99.90
2023-02-01T19:54:17.808Z,99.90
2023-02-01T19:56:50.856Z,99.90
2023-02-01T19:59:27.045Z,99.90
2023-02-01T20:01:59.463Z,99.90
2023-02-01T20:04:31.074Z,99.90
2023-02-01T20:07:03.628Z,99.90
2023-02-01T20:09:31.228Z,99.90
2023-02-01T20:12:01.590Z,99.90
2023-02-01T20:14:49.081Z,99.90
2023-02-01T20:17:18.405Z,99.90
2023-02-01T20:19:52.711Z,99.90
2023-02-01T20:22:19.750Z,99.90
2023-02-01T20:24:57.430Z,99.90
2023-02-01T20:27:28.734Z,99.90
2023-02-01T20:29:56.033Z,99.90
2023-02-01T20:32:24.054Z,99.90
2023-02-01T20:34:55.810Z,99.90
2023-02-01T20:37:26.730Z,99.90
2023-02-01T20:39:56.722Z,99.90
2023-02-01T20:42:30.400Z,99.90
2023-02-01T20:45:04.619Z,99.90
2023-02-01T20:47:36.089Z,99.90
2023-02-01T20:50:05.236Z,99.90
2023-02-01T20:52:33.255Z,99.90
2023-02-01T20:55:00.504Z,99.90
2023-02-01T20:57:27.621Z,99.90
2023-02-01T20:59:54.901Z,99.90
2023-02-01T21:02:21.944Z,99.90
2023-02-01T21:04:49.045Z,99.90
2023-02-01T21:07:17.893Z,99.90
2023-02-01T21:09:44.997Z,99.90
2023-02-01T21:12:12.151Z,99.90
2023-02-01T21:14:42.116Z,99.90
2023-02-01T21:17:09.297Z,99.90
2023-02-01T21:19:43.471Z,99.90
2023-02-01T21:22:10.792Z,99.90
2023-02-01T21:24:41.048Z,99.90
2023-02-01T21:27:11.104Z,99.90
2023-02-01T21:29:41.196Z,99.90
2023-02-01T21:32:09.370Z,99.90
2023-02-01T21:34:36.686Z,99.90
2023-02-01T21:37:04.197Z,99.90
2023-02-01T21:39:31.400Z,99.90
2023-02-01T21:42:14.322Z,99.90
2023-02-01T21:44:42.340Z,99.90
2023-02-01T21:47:12.809Z,99.90
2023-02-01T21:49:43.724Z,99.90
2023-02-01T21:52:15.588Z,99.90
2023-02-01T21:54:47.010Z,99.90
2023-02-01T21:57:15.556Z,99.90
2023-02-01T21:59:44.618Z,99.90
2023-02-01T22:02:15.090Z,99.90
2023-02-01T22:04:42.772Z,99.90
2023-02-01T22:07:13.066Z,99.90
2023-02-01T22:09:44.131Z,99.90
2023-02-01T22:12:16.567Z,99.90
2023-02-01T22:14:46.200Z,99.90
2023-02-01T22:17:13.758Z,99.90
2023-02-01T22:19:43.917Z,99.90
2023-02-01T22:22:14.294Z,99.90
2023-02-01T22:24:44.116Z,99.90
2023-02-01T22:27:14.084Z,99.90
2023-02-01T22:29:48.463Z,99.90
2023-02-01T22:32:21.204Z,99.90
2023-02-01T22:37:32.299Z,99.90
2023-02-01T22:39:59.594Z,99.90
2023-02-01T22:42:27.558Z,99.90
2023-02-01T22:44:56.547Z,99.90
2023-02-01T22:47:23.837Z,99.90
2023-02-01T22:49:51.005Z,99.90
2023-02-01T22:52:18.020Z,99.90
2023-02-01T22:54:45.273Z,99.90
2023-02-01T22:57:12.360Z,99.90
2023-02-01T22:59:39.463Z,99.90
2023-02-01T23:02:07.889Z,99.90
2023-02-01T23:04:34.918Z,99.90
2023-02-01T23:07:10.675Z,99.90
2023-02-01T23:09:40.844Z,99.90
2023-02-01T23:12:08.048Z,99.90
2023-02-01T23:17:45.543Z,99.90
2023-02-01T23:20:15.249Z,99.90
2023-02-01T23:22:44.322Z,99.90
2023-02-01T23:25:14.461Z,99.90
2023-02-01T23:27:42.744Z,99.90
2023-02-01T23:30:12.380Z,99.90
2023-02-01T23:32:40.217Z,99.90
2023-02-01T23:35:12.389Z,99.90
2023-02-01T23:37:41.885Z,99.90
2023-02-01T23:40:12.112Z,99.90
2023-02-01T23:42:39.274Z,99.90
2023-02-01T23:45:08.500Z,99.90
2023-02-01T23:47:35.810Z,99.90
2023-02-01T23:50:02.994Z,99.90
2023-02-01T23:52:31.580Z,99.90
2023-02-01T23:54:58.687Z,99.90
2023-02-01T23:57:28.414Z,99.90
